createdAt,value
2022-11-19T00:00:45.797Z,7.53
2022-11-19T00:03:13.393Z,6.28
2022-11-19T00:05:40.682Z,7.95
2022-11-19T00:08:07.638Z,7.10
2022-11-19T00:10:38.047Z,5.95
2022-11-19T00:13:06.830Z,6.90
2022-11-19T00:15:37.442Z,7.88
2022-11-19T00:18:04.973Z,6.97
2022-11-19T00:20:32.429Z,6.88
2022-11-19T00:22:58.860Z,7.78
2022-11-19T00:25:26.912Z,6.93
2022-11-19T00:27:53.414Z,7.50
2022-11-19T00:30:40.840Z,10.77
2022-11-19T00:33:06.288Z,7.10
2022-11-19T00:35:32.609Z,7.50
2022-11-19T00:37:59.003Z,8.98
2022-11-19T00:40:25.339Z,8.00
2022-11-19T00:43:10.049Z,8.85
2022-11-19T00:45:36.433Z,8.73
2022-11-19T00:48:02.823Z,9.57
2022-11-19T00:50:29.285Z,9.40
2022-11-19T00:52:55.719Z,8.73
2022-11-19T00:55:22.141Z,8.82
2022-11-19T00:57:48.566Z,9.45
2022-11-19T01:00:15.615Z,9.57
2022-11-19T01:02:41.937Z,8.15
2022-11-19T01:05:08.735Z,8.90
2022-11-19T01:07:35.083Z,9.40
2022-11-19T01:10:01.461Z,9.73
2022-11-19T01:12:27.829Z,9.98
2022-11-19T01:14:54.274Z,10.48
2022-11-19T01:17:20.623Z,11.00
2022-11-19T01:19:47.089Z,10.13
2022-11-19T01:22:13.447Z,10.30
2022-11-19T01:24:39.886Z,10.48
2022-11-19T01:27:06.345Z,10.32
2022-11-19T01:29:34.080Z,11.65
2022-11-19T01:32:03.044Z,12.85
2022-11-19T01:34:29.556Z,9.98
2022-11-19T01:36:55.906Z,9.52
2022-11-19T01:39:22.362Z,10.35
2022-11-19T01:41:48.728Z,10.25
2022-11-19T01:44:53.845Z,10.40
2022-11-19T01:47:20.185Z,10.20
2022-11-19T01:49:46.558Z,9.13
2022-11-19T01:52:13.024Z,9.73
2022-11-19T01:54:41.487Z,10.15
2022-11-19T01:57:11.197Z,10.00
2022-11-19T01:59:38.403Z,9.98
2022-11-19T02:02:05.170Z,10.45
2022-11-19T02:04:31.596Z,10.75
2022-11-19T02:06:58.144Z,8.43
2022-11-19T02:09:26.016Z,9.18
2022-11-19T02:12:07.108Z,10.60
2022-11-19T02:15:07.077Z,8.85
2022-11-19T02:17:54.475Z,12.25
2022-11-19T02:20:32.771Z,8.88
2022-11-19T02:23:39.520Z,9.23
2022-11-19T02:26:43.470Z,10.55
2022-11-19T02:29:22.055Z,8.68
2022-11-19T02:32:02.928Z,8.52
2022-11-19T02:34:46.687Z,9.00
2022-11-19T02:37:27.849Z,7.88
2022-11-19T02:39:58.223Z,10.13
2022-11-19T02:42:32.190Z,8.18
2022-11-19T02:47:51.069Z,7.65
2022-11-19T02:50:20.687Z,8.13
2022-11-19T02:52:47.758Z,7.90
2022-11-19T02:55:15.570Z,10.07
2022-11-19T02:58:08.108Z,9.65
2022-11-19T03:01:00.541Z,9.38
2022-11-19T03:03:45.941Z,10.15
2022-11-19T03:06:18.823Z,10.57
2022-11-19T03:08:46.448Z,8.52
2022-11-19T03:11:25.021Z,8.50
2022-11-19T03:14:13.393Z,8.50
2022-11-19T03:16:41.873Z,7.43
2022-11-19T03:19:20.762Z,9.23
2022-11-19T03:22:05.402Z,6.72
2022-11-19T03:24:38.808Z,7.90
2022-11-19T03:27:19.450Z,8.52
2022-11-19T03:29:49.130Z,7.00
2022-11-19T03:32:21.925Z,7.45
2022-11-19T03:34:50.909Z,7.03
2022-11-19T03:37:19.577Z,7.50
2022-11-19T03:39:47.372Z,7.85
2022-11-19T03:42:16.229Z,7.95
2022-11-19T03:44:48.614Z,10.85
2022-11-19T03:47:18.049Z,7.50
2022-11-19T03:49:46.451Z,8.40
2022-11-19T03:52:15.412Z,8.85
2022-11-19T03:54:42.488Z,9.02
2022-11-19T03:57:11.803Z,8.68
2022-11-19T03:59:38.213Z,10.38
2022-11-19T04:02:07.417Z,8.77
2022-11-19T04:04:37.258Z,8.95
2022-11-19T04:07:15.230Z,8.50
2022-11-19T04:09:42.472Z,8.73
2022-11-19T04:12:16.213Z,8.20
2022-11-19T04:14:42.595Z,7.20
2022-11-19T04:17:09.190Z,7.88
2022-11-19T04:19:35.521Z,7.78
2022-11-19T04:22:01.828Z,7.88
2022-11-19T04:24:28.496Z,7.68
2022-11-19T04:26:54.893Z,8.57
2022-11-19T04:29:21.708Z,9.38
2022-11-19T04:31:48.398Z,8.20
2022-11-19T04:34:15.030Z,8.23
2022-11-19T04:36:42.162Z,9.57
2022-11-19T04:39:09.830Z,9.27
2022-11-19T04:41:36.446Z,10.35
2022-11-19T04:44:02.886Z,9.75
2022-11-19T04:46:29.248Z,10.02
2022-11-19T04:48:55.592Z,11.02
2022-11-19T04:51:22.152Z,11.18
2022-11-19T04:53:48.488Z,10.07
2022-11-19T04:56:14.941Z,10.52
2022-11-19T04:58:41.309Z,10.65
2022-11-19T05:01:07.786Z,10.68
2022-11-19T05:03:34.311Z,12.90
2022-11-19T05:06:00.725Z,11.35
2022-11-19T05:08:27.098Z,10.27
2022-11-19T05:10:53.525Z,11.82
2022-11-19T05:13:19.989Z,10.00
2022-11-19T05:15:46.628Z,10.05
2022-11-19T05:18:13.554Z,9.98
2022-11-19T05:20:40.067Z,9.68
2022-11-19T05:23:06.806Z,9.60
2022-11-19T05:25:33.210Z,8.68
2022-11-19T05:27:59.549Z,10.77
2022-11-19T05:30:25.963Z,10.63
2022-11-19T05:32:52.319Z,11.75
2022-11-19T05:35:19.271Z,11.07
2022-11-19T05:37:48.736Z,10.32
2022-11-19T05:40:15.205Z,10.10
2022-11-19T05:42:41.533Z,10.50
2022-11-19T05:45:08.465Z,11.60
2022-11-19T05:47:34.819Z,11.32
2022-11-19T05:50:01.157Z,12.15
2022-11-19T05:52:27.540Z,10.73
2022-11-19T05:54:53.888Z,10.70
2022-11-19T05:57:20.197Z,10.65
2022-11-19T05:59:46.583Z,11.30
2022-11-19T06:02:12.951Z,10.75
2022-11-19T06:04:39.426Z,11.32
2022-11-19T06:07:05.880Z,11.55
2022-11-19T06:09:32.541Z,13.32
2022-11-19T06:11:59.038Z,14.63
2022-11-19T06:14:26.630Z,11.25
2022-11-19T06:16:55.627Z,11.25
2022-11-19T06:19:22.678Z,12.32
2022-11-19T06:21:49.471Z,11.23
2022-11-19T06:24:15.883Z,10.85
2022-11-19T06:26:42.990Z,12.68
2022-11-19T06:29:10.565Z,12.88
2022-11-19T06:31:36.986Z,13.32
2022-11-19T06:34:03.437Z,10.95
2022-11-19T06:36:34.897Z,10.73
2022-11-19T06:39:05.423Z,11.15
2022-11-19T06:41:31.841Z,11.90
2022-11-19T06:43:58.156Z,11.13
2022-11-19T06:46:24.515Z,11.10
2022-11-19T06:48:50.969Z,11.82
2022-11-19T06:51:17.330Z,11.68
2022-11-19T06:53:43.675Z,11.50
2022-11-19T06:56:10.119Z,11.57
2022-11-19T06:58:36.483Z,11.25
2022-11-19T07:01:02.833Z,13.05
2022-11-19T07:03:29.272Z,12.43
2022-11-19T07:05:58.388Z,11.05
2022-11-19T07:08:24.799Z,12.93
2022-11-19T07:10:51.374Z,12.13
2022-11-19T07:13:17.717Z,13.82
2022-11-19T07:15:44.068Z,11.90
2022-11-19T07:18:10.715Z,13.57
2022-11-19T07:20:37.052Z,14.00
2022-11-19T07:23:03.457Z,13.00
2022-11-19T07:25:29.844Z,12.90
2022-11-19T07:27:56.228Z,12.88
2022-11-19T07:30:22.639Z,12.13
2022-11-19T07:32:48.973Z,13.00
2022-11-19T07:35:15.293Z,13.10
2022-11-19T07:37:41.712Z,13.05
2022-11-19T07:40:10.811Z,13.02
2022-11-19T07:42:49.291Z,11.98
2022-11-19T07:45:16.832Z,16.67
2022-11-19T07:47:43.251Z,13.18
2022-11-19T07:50:09.893Z,12.75
2022-11-19T07:52:36.292Z,13.52
2022-11-19T07:55:02.725Z,13.43
2022-11-19T07:57:30.404Z,15.65
2022-11-19T07:59:57.185Z,11.02
2022-11-19T08:02:23.583Z,10.70
2022-11-19T08:04:50.156Z,9.73
2022-11-19T08:07:16.603Z,9.13
2022-11-19T08:09:43.055Z,9.05
2022-11-19T08:12:09.395Z,8.50
2022-11-19T08:14:35.732Z,9.60
2022-11-19T08:17:20.748Z,9.65
2022-11-19T08:19:47.208Z,10.88
2022-11-19T08:22:13.812Z,7.97
2022-11-19T08:24:40.135Z,7.68
2022-11-19T08:27:06.573Z,7.13
2022-11-19T08:29:32.974Z,7.53
2022-11-19T08:31:59.338Z,6.95
2022-11-19T08:34:25.943Z,7.20
2022-11-19T08:36:52.358Z,6.97
2022-11-19T08:39:18.731Z,8.30
2022-11-19T08:42:03.450Z,7.80
2022-11-19T08:44:29.837Z,6.45
2022-11-19T08:46:56.166Z,7.18
2022-11-19T08:49:22.489Z,10.15
2022-11-19T08:51:48.805Z,6.78
2022-11-19T08:54:15.311Z,6.03
2022-11-19T08:56:41.827Z,7.65
2022-11-19T08:59:08.389Z,7.40
2022-11-19T09:01:34.932Z,8.02
2022-11-19T09:04:01.550Z,7.88
2022-11-19T09:06:27.955Z,9.05
2022-11-19T09:08:54.307Z,9.23
2022-11-19T09:11:21.727Z,7.72
2022-11-19T09:13:48.451Z,7.93
2022-11-19T09:16:15.277Z,8.85
2022-11-19T09:18:42.105Z,8.48
2022-11-19T09:21:09.984Z,8.95
2022-11-19T09:23:36.354Z,8.93
2022-11-19T09:26:12.150Z,8.90
2022-11-19T09:28:38.745Z,9.18
2022-11-19T09:31:13.221Z,9.75
2022-11-19T09:33:42.323Z,9.70
2022-11-19T09:36:10.383Z,11.40
2022-11-19T09:38:37.053Z,10.00
2022-11-19T09:41:13.420Z,10.20
2022-11-19T09:43:58.296Z,9.88
2022-11-19T09:46:52.296Z,11.40
2022-11-19T09:49:29.014Z,12.40
2022-11-19T09:51:59.565Z,10.90
2022-11-19T09:54:26.372Z,11.48
2022-11-19T09:56:55.358Z,12.52
2022-11-19T09:59:33.254Z,10.00
2022-11-19T10:02:02.778Z,11.02
2022-11-19T10:04:31.226Z,11.32
2022-11-19T10:07:11.202Z,11.70
2022-11-19T10:10:13.044Z,11.90
2022-11-19T10:12:49.412Z,12.05
2022-11-19T10:15:24.754Z,11.55
2022-11-19T10:17:56.889Z,10.40
2022-11-19T10:20:51.205Z,8.82
2022-11-19T10:23:30.761Z,9.98
2022-11-19T10:26:04.112Z,12.05
2022-11-19T10:28:35.433Z,11.18
2022-11-19T10:31:13.469Z,12.18
2022-11-19T10:33:52.517Z,10.32
2022-11-19T10:36:37.092Z,13.23
2022-11-19T10:39:32.322Z,11.55
2022-11-19T10:42:06.057Z,12.85
2022-11-19T10:44:46.198Z,12.40
2022-11-19T10:47:23.005Z,12.52
2022-11-19T10:49:55.792Z,15.00
2022-11-19T10:52:38.269Z,15.52
2022-11-19T10:55:41.114Z,13.68
2022-11-19T10:58:19.353Z,13.70
2022-11-19T11:00:46.154Z,11.38
2022-11-19T11:03:20.819Z,10.63
2022-11-19T11:05:56.210Z,11.32
2022-11-19T11:08:22.754Z,11.35
2022-11-19T11:10:50.990Z,11.10
2022-11-19T11:13:49.333Z,11.55
2022-11-19T11:16:19.072Z,11.52
2022-11-19T11:18:46.917Z,13.15
2022-11-19T11:21:29.466Z,14.23
2022-11-19T11:23:56.360Z,12.77
2022-11-19T11:26:28.217Z,15.45
2022-11-19T11:28:57.228Z,13.52
2022-11-19T11:31:33.588Z,13.70
2022-11-19T11:34:02.241Z,14.20
2022-11-19T11:36:30.725Z,15.13
2022-11-19T11:38:59.307Z,14.60
2022-11-19T11:42:04.788Z,15.95
2022-11-19T11:44:28.820Z,14.10
2022-11-19T11:47:01.612Z,14.02
2022-11-19T11:49:42.034Z,14.05
2022-11-19T11:52:11.422Z,15.68
2022-11-19T11:54:39.526Z,14.07
2022-11-19T11:57:18.622Z,14.30
2022-11-19T11:59:45.496Z,14.55
2022-11-19T12:02:30.515Z,16.67
2022-11-19T12:05:01.459Z,14.18
2022-11-19T12:07:51.397Z,17.08
2022-11-19T12:10:29.704Z,16.20
2022-11-19T12:13:20.273Z,14.10
2022-11-19T12:16:03.888Z,15.65
2022-11-19T12:18:37.240Z,16.13
2022-11-19T12:21:11.983Z,18.42
2022-11-19T12:23:45.349Z,18.50
2022-11-19T12:26:20.829Z,17.60
2022-11-19T12:29:28.534Z,16.73
2022-11-19T12:32:15.146Z,15.55
2022-11-19T12:35:15.836Z,17.42
2022-11-19T12:38:11.226Z,94.93
2022-11-19T12:41:05.650Z,18.58
2022-11-19T12:43:58.803Z,15.45
2022-11-19T12:46:54.358Z,17.65
2022-11-19T12:49:35.688Z,16.38
2022-11-19T12:52:27.555Z,17.15
2022-11-19T12:55:00.669Z,17.90
2022-11-19T12:57:31.976Z,17.20
2022-11-19T13:00:15.323Z,19.63
2022-11-19T13:03:05.146Z,16.27
2022-11-19T13:05:47.939Z,17.33
2022-11-19T13:08:40.033Z,17.15
2022-11-19T13:11:13.308Z,15.38
2022-11-19T13:13:45.810Z,17.33
2022-11-19T13:16:20.126Z,18.08
2022-11-19T13:18:49.255Z,17.30
2022-11-19T13:21:31.127Z,19.00
2022-11-19T13:24:00.145Z,18.30
2022-11-19T13:26:30.066Z,17.60
2022-11-19T13:29:15.609Z,18.70
2022-11-19T13:31:47.145Z,19.52
2022-11-19T13:34:21.335Z,20.40
2022-11-19T13:37:04.470Z,18.73
2022-11-19T13:39:43.530Z,19.38
2022-11-19T13:42:28.732Z,19.63
2022-11-19T13:44:55.184Z,21.95
2022-11-19T13:47:24.796Z,19.83
2022-11-19T13:49:54.759Z,19.70
2022-11-19T13:52:34.293Z,19.95
2022-11-19T13:55:01.074Z,20.98
2022-11-19T13:57:33.829Z,18.38
2022-11-19T14:00:04.857Z,22.73
2022-11-19T14:03:11.604Z,22.30
2022-11-19T14:05:59.683Z,21.83
2022-11-19T14:08:56.688Z,19.00
2022-11-19T14:11:41.582Z,22.05
2022-11-19T14:14:44.686Z,20.58
2022-11-19T14:17:36.228Z,23.75
2022-11-19T14:20:21.460Z,20.40
2022-11-19T14:23:14.539Z,21.42
2022-11-19T14:26:06.772Z,19.05
2022-11-19T14:28:43.417Z,22.27
2022-11-19T14:31:10.161Z,23.52
2022-11-19T14:33:48.546Z,22.20
2022-11-19T14:36:22.246Z,20.83
2022-11-19T14:38:54.466Z,21.58
2022-11-19T14:41:29.683Z,22.38
2022-11-19T14:44:10.622Z,22.13
2022-11-19T14:46:45.619Z,22.83
2022-11-19T14:49:33.925Z,23.30
2022-11-19T14:52:00.404Z,23.00
2022-11-19T14:54:32.276Z,21.15
2022-11-19T14:57:14.011Z,21.23
2022-11-19T14:59:46.405Z,20.02
2022-11-19T15:02:39.589Z,19.63
2022-11-19T15:05:17.293Z,19.55
2022-11-19T15:07:52.891Z,24.33
2022-11-19T15:10:20.769Z,21.45
2022-11-19T15:12:48.744Z,20.88
2022-11-19T15:15:20.939Z,22.50
2022-11-19T15:18:02.449Z,19.67
2022-11-19T15:20:55.582Z,21.40
2022-11-19T15:23:34.018Z,22.75
2022-11-19T15:26:18.356Z,24.70
2022-11-19T15:29:09.236Z,20.80
2022-11-19T15:31:56.373Z,20.88
2022-11-19T15:34:56.315Z,21.45
2022-11-19T15:37:44.758Z,21.38
2022-11-19T15:40:14.807Z,18.35
2022-11-19T15:42:49.916Z,20.20
2022-11-19T15:45:18.987Z,19.10
2022-11-19T15:47:56.116Z,21.40
2022-11-19T15:50:24.434Z,20.75
2022-11-19T15:52:58.269Z,22.05
2022-11-19T15:55:30.534Z,20.63
2022-11-19T15:58:10.871Z,21.15
2022-11-19T16:00:45.720Z,22.50
2022-11-19T16:03:15.076Z,21.85
2022-11-19T16:05:45.083Z,21.75
2022-11-19T16:08:14.565Z,22.23
2022-11-19T16:10:42.640Z,22.10
2022-11-19T16:13:42.084Z,22.05
2022-11-19T16:16:47.153Z,21.08
2022-11-19T16:19:15.268Z,21.15
2022-11-19T16:21:43.504Z,20.38
2022-11-19T16:24:33.357Z,21.83
2022-11-19T16:27:01.889Z,20.60
2022-11-19T16:29:28.344Z,19.67
2022-11-19T16:31:57.750Z,18.98
2022-11-19T16:34:26.716Z,19.08
2022-11-19T16:36:53.257Z,19.70
2022-11-19T16:39:23.654Z,19.40
2022-11-19T16:42:14.094Z,19.30
2022-11-19T16:44:45.931Z,19.67
2022-11-19T16:47:32.666Z,18.40
2022-11-19T16:50:01.980Z,20.58
2022-11-19T16:52:39.117Z,18.02
2022-11-19T16:55:25.873Z,20.30
2022-11-19T16:57:54.420Z,19.00
2022-11-19T17:00:23.036Z,22.10
2022-11-19T17:02:50.721Z,24.40
2022-11-19T17:05:20.622Z,21.08
2022-11-19T17:07:50.615Z,21.48
2022-11-19T17:10:23.058Z,21.48
2022-11-19T17:12:53.387Z,19.02
2022-11-19T17:15:35.107Z,18.25
2022-11-19T17:18:32.697Z,19.42
2022-11-19T17:21:06.612Z,21.80
2022-11-19T17:26:08.486Z,20.02
2022-11-19T17:28:49.465Z,19.55
2022-11-19T17:31:18.293Z,21.40
2022-11-19T17:34:06.912Z,21.48
2022-11-19T17:36:36.381Z,22.63
2022-11-19T17:39:11.797Z,23.23
2022-11-19T17:41:57.556Z,20.80
2022-11-19T17:44:34.343Z,22.67
2022-11-19T17:47:02.514Z,22.13
2022-11-19T17:49:29.230Z,20.70
2022-11-19T17:51:55.595Z,21.80
2022-11-19T17:54:22.547Z,20.77
2022-11-19T17:56:49.145Z,22.10
2022-11-19T17:59:15.525Z,21.33
2022-11-19T18:01:42.593Z,19.35
2022-11-19T18:04:12.316Z,21.42
2022-11-19T18:06:38.954Z,20.73
2022-11-19T18:09:05.671Z,20.73
2022-11-19T18:11:32.420Z,20.67
2022-11-19T18:14:01.750Z,21.98
2022-11-19T18:16:33.982Z,22.08
2022-11-19T18:19:00.337Z,19.42
2022-11-19T18:21:27.392Z,20.35
2022-11-19T18:23:53.966Z,19.48
2022-11-19T18:26:24.865Z,20.38
2022-11-19T18:28:51.469Z,20.05
2022-11-19T18:31:20.833Z,20.55
2022-11-19T18:33:48.114Z,20.80
2022-11-19T18:36:15.043Z,21.23
2022-11-19T18:38:42.181Z,19.10
2022-11-19T18:41:13.384Z,20.63
2022-11-19T18:43:58.870Z,22.30
2022-11-19T18:46:25.724Z,22.20
2022-11-19T18:48:53.522Z,21.75
2022-11-19T18:51:20.341Z,23.02
2022-11-19T18:53:47.007Z,21.42
2022-11-19T18:56:17.885Z,23.00
2022-11-19T18:58:44.278Z,19.80
2022-11-19T19:01:11.540Z,19.90
2022-11-19T19:03:37.901Z,22.85
2022-11-19T19:06:06.477Z,19.10
2022-11-19T19:08:33.341Z,21.77
2022-11-19T19:11:18.312Z,20.58
2022-11-19T19:13:45.465Z,21.65
2022-11-19T19:16:12.841Z,20.65
2022-11-19T19:18:39.617Z,21.00
2022-11-19T19:21:19.111Z,20.25
2022-11-19T19:23:45.829Z,22.27
2022-11-19T19:26:13.913Z,23.42
2022-11-19T19:28:40.310Z,23.60
2022-11-19T19:31:07.185Z,24.17
2022-11-19T19:33:33.695Z,20.88
2022-11-19T19:36:03.087Z,20.33
2022-11-19T19:38:29.405Z,23.48
2022-11-19T19:41:03.759Z,22.42
2022-11-19T19:43:30.274Z,24.60
2022-11-19T19:46:05.553Z,20.90
2022-11-19T19:48:31.977Z,20.63
2022-11-19T19:50:58.658Z,20.98
2022-11-19T19:53:25.086Z,22.35
2022-11-19T19:55:51.768Z,23.92
2022-11-19T19:58:18.150Z,20.38
2022-11-19T20:00:44.464Z,19.67
2022-11-19T20:03:10.856Z,19.65
2022-11-19T20:05:37.217Z,23.35
2022-11-19T20:08:03.584Z,25.25
2022-11-19T20:10:29.961Z,23.42
2022-11-19T20:13:14.959Z,20.35
2022-11-19T20:15:41.376Z,23.05
2022-11-19T20:18:07.744Z,20.23
2022-11-19T20:20:34.069Z,21.17
2022-11-19T20:23:00.405Z,22.20
2022-11-19T20:25:26.775Z,23.20
2022-11-19T20:27:53.169Z,21.38
2022-11-19T20:30:19.554Z,22.33
2022-11-19T20:32:45.973Z,23.63
2022-11-19T20:35:12.414Z,21.65
2022-11-19T20:37:38.821Z,20.73
2022-11-19T20:40:06.882Z,23.02
2022-11-19T20:42:52.287Z,22.33
2022-11-19T20:45:18.754Z,21.45
2022-11-19T20:47:45.162Z,20.83
2022-11-19T20:50:11.683Z,25.40
2022-11-19T20:52:38.074Z,21.17
2022-11-19T20:55:06.797Z,21.17
2022-11-19T20:57:33.527Z,20.80
2022-11-19T21:00:00.516Z,22.52
2022-11-19T21:02:26.945Z,23.48
2022-11-19T21:04:53.405Z,23.35
2022-11-19T21:07:19.876Z,24.15
2022-11-19T21:09:46.874Z,24.10
2022-11-19T21:12:13.285Z,26.27
2022-11-19T21:14:39.699Z,22.00
2022-11-19T21:17:06.069Z,22.00
2022-11-19T21:19:33.758Z,21.65
2022-11-19T21:22:00.136Z,22.30
2022-11-19T21:24:26.566Z,21.45
2022-11-19T21:26:52.932Z,26.17
2022-11-19T21:29:19.771Z,23.10
2022-11-19T21:31:48.494Z,22.83
2022-11-19T21:34:17.707Z,23.50
2022-11-19T21:36:45.139Z,22.20
2022-11-19T21:39:11.987Z,21.83
2022-11-19T21:41:38.504Z,22.00
2022-11-19T21:44:05.025Z,23.55
2022-11-19T21:46:32.056Z,21.17
2022-11-19T21:48:58.554Z,23.30
2022-11-19T21:51:25.498Z,23.73
2022-11-19T21:53:58.477Z,23.30
2022-11-19T21:56:26.076Z,21.63
2022-11-19T21:58:52.661Z,28.27
2022-11-19T22:01:19.339Z,35.67
2022-11-19T22:03:46.007Z,34.10
2022-11-19T22:06:12.376Z,26.60
2022-11-19T22:08:40.422Z,24.67
2022-11-19T22:11:26.441Z,22.48
2022-11-19T22:13:53.232Z,24.08
2022-11-19T22:16:19.776Z,22.40
2022-11-19T22:18:46.387Z,19.15
2022-11-19T22:21:13.278Z,22.95
2022-11-19T22:23:39.715Z,22.30
2022-11-19T22:26:08.481Z,23.65
2022-11-19T22:28:34.969Z,20.95
2022-11-19T22:31:01.640Z,22.65
2022-11-19T22:33:32.205Z,23.80
2022-11-19T22:35:59.306Z,22.88
2022-11-19T22:38:25.931Z,23.42
2022-11-19T22:40:52.348Z,24.42
2022-11-19T22:43:22.618Z,22.48
2022-11-19T22:45:49.358Z,26.30
2022-11-19T22:48:15.722Z,22.75
2022-11-19T22:50:42.495Z,22.35
2022-11-19T22:53:09.346Z,22.52
2022-11-19T22:55:36.205Z,23.45
2022-11-19T22:58:03.393Z,21.85
2022-11-19T23:00:47.344Z,25.88
2022-11-19T23:03:14.195Z,22.80
2022-11-19T23:05:54.223Z,25.42
2022-11-19T23:08:21.237Z,23.65
2022-11-19T23:10:48.282Z,23.50
2022-11-19T23:13:34.403Z,24.15
2022-11-19T23:16:05.204Z,25.95
2022-11-19T23:18:39.643Z,25.95
2022-11-19T23:21:12.367Z,23.05
2022-11-19T23:23:38.889Z,22.20
2022-11-19T23:26:07.156Z,24.02
2022-11-19T23:28:36.710Z,24.38
2022-11-19T23:31:11.442Z,23.70
2022-11-19T23:33:37.831Z,23.40
2022-11-19T23:36:06.028Z,24.25
2022-11-19T23:38:32.553Z,24.83
2022-11-19T23:41:02.960Z,22.92
2022-11-19T23:43:30.357Z,24.63
2022-11-19T23:46:10.582Z,25.10
2022-11-19T23:48:38.145Z,22.30
2022-11-19T23:51:15.581Z,25.67
2022-11-19T23:53:42.418Z,23.98
2022-11-19T23:56:09.219Z,24.45
2022-11-19T23:58:39.425Z,22.08
